Time;durP1;ratioP1;P1;durP2;ratioP2;P2;SDS_P1;SDS_P2;PMS_P1;PMS_P2;Temp;Humidity;BMP_temperature;BMP_pressure;BME280_temperature;BME280_humidity;BME280_pressure;Samples;Min_cycle;Max_cycle;Signal;HPM_P1;HPM_P2
2023/01/27 00:00:05;;;;;;;3.50;3.20;;;;;;;2.03;85.31;94229.91;5030043;28;20329;-73
2023/01/27 00:02:31;;;;;;;3.57;3.27;;;;;;;2.10;85.09;94235.66;5030178;28;20211;-73
2023/01/27 00:04:58;;;;;;;4.13;3.83;;;;;;;2.02;85.78;94228.25;5033623;28;20638;-74
2023/01/27 00:07:25;;;;;;;5.23;4.00;;;;;;;2.01;85.03;94229.09;5033375;28;20296;-71
2023/01/27 00:09:52;;;;;;;4.63;4.03;;;;;;;1.91;86.73;94230.09;5033382;28;20206;-73
2023/01/27 00:15:08;;;;;;;5.03;4.40;;;;;;;1.94;86.35;94220.03;5033249;28;20627;-74
2023/01/27 00:17:34;;;;;;;5.20;4.80;;;;;;;1.92;87.41;94231.75;5030319;28;20296;-79
2023/01/27 00:20:02;;;;;;;5.17;4.67;;;;;;;1.97;86.75;94219.16;5034167;28;20300;-78
2023/01/27 00:25:12;;;;;;;5.80;5.23;;;;;;;2.06;87.39;94198.97;5033212;28;20364;-81
2023/01/27 00:27:39;;;;;;;6.67;5.40;;;;;;;2.21;86.30;94188.72;5032265;28;20607;-75
2023/01/27 00:30:10;;;;;;;5.73;5.27;;;;;;;2.15;86.68;94193.00;5032318;28;20214;-76
2023/01/27 00:35:21;;;;;;;4.53;4.13;;;;;;;2.27;85.13;94202.81;5032526;28;20787;-74
2023/01/27 00:37:48;;;;;;;5.03;4.57;;;;;;;2.15;85.48;94185.47;5030726;28;20206;-81
2023/01/27 00:40:16;;;;;;;5.43;4.93;;;;;;;2.13;84.94;94202.22;5033729;28;20219;-78
2023/01/27 00:42:44;;;;;;;5.33;4.83;;;;;;;2.03;85.46;94204.03;5033498;28;20238;-77
2023/01/27 00:47:56;;;;;;;4.67;4.27;;;;;;;2.07;85.70;94194.78;5033531;28;20210;-75
2023/01/27 00:50:24;;;;;;;4.87;4.50;;;;;;;2.12;84.73;94198.06;5033006;28;20207;-79
2023/01/27 00:52:51;;;;;;;4.90;4.50;;;;;;;2.05;85.77;94217.34;5033020;28;20207;-75
2023/01/27 00:55:18;;;;;;;5.03;4.53;;;;;;;2.03;86.29;94212.38;5032722;28;20268;-75
2023/01/27 00:57:45;;;;;;;4.67;4.37;;;;;;;2.09;85.63;94203.94;5031745;28;20203;-74
2023/01/27 01:00:15;;;;;;;6.07;5.43;;;;;;;2.21;84.44;94205.44;5029761;28;20230;-74
2023/01/27 01:02:42;;;;;;;5.33;4.87;;;;;;;2.15;85.26;94203.03;5032954;28;20211;-72
2023/01/27 01:05:09;;;;;;;4.80;4.40;;;;;;;2.08;85.49;94202.28;5030853;28;20719;-75
2023/01/27 01:07:35;;;;;;;4.67;4.27;;;;;;;2.02;85.03;94200.69;5032665;28;20207;-79
2023/01/27 01:10:02;;;;;;;5.43;4.93;;;;;;;2.02;86.36;94200.69;5032295;28;20201;-73
2023/01/27 01:12:29;;;;;;;8.47;5.63;;;;;;;2.00;85.93;94189.03;5031612;28;20331;-75
2023/01/27 01:14:56;;;;;;;6.93;6.03;;;;;;;1.75;86.53;94187.72;5031817;28;20199;-83
2023/01/27 01:17:24;;;;;;;6.20;5.80;;;;;;;1.86;87.93;94201.78;5031751;28;20211;-83
2023/01/27 01:19:50;;;;;;;6.57;6.03;;;;;;;1.93;87.52;94203.34;5032831;28;20264;-79
2023/01/27 01:22:17;;;;;;;7.10;6.07;;;;;;;1.88;87.32;94205.09;5033581;28;20307;-75
2023/01/27 01:24:44;;;;;;;7.20;6.60;;;;;;;1.84;88.54;94210.16;5033434;28;20231;-77
2023/01/27 01:27:11;;;;;;;8.07;7.20;;;;;;;1.83;88.03;94201.81;5034759;28;20203;-80
2023/01/27 01:29:38;;;;;;;8.30;6.87;;;;;;;1.90;88.20;94202.56;5035040;28;20203;-82
2023/01/27 01:32:08;;;;;;;6.90;6.30;;;;;;;2.01;87.68;94196.53;5033727;28;20661;-84
2023/01/27 01:34:37;;;;;;;7.83;6.83;;;;;;;2.09;87.43;94193.91;5032978;28;20814;-79
2023/01/27 01:37:04;;;;;;;7.27;6.13;;;;;;;2.09;87.39;94203.09;5037172;28;20199;-76
2023/01/27 01:39:31;;;;;;;6.27;5.77;;;;;;;1.98;88.03;94201.56;5033938;28;20776;-76
2023/01/27 01:41:58;;;;;;;7.23;5.83;;;;;;;2.02;88.05;94208.22;5035316;28;20726;-81
2023/01/27 01:44:27;;;;;;;4.90;4.53;;;;;;;2.00;88.08;94212.41;5032351;28;20231;-74
2023/01/27 01:46:55;;;;;;;5.23;4.73;;;;;;;1.97;88.14;94215.00;5030643;28;20207;-79
2023/01/27 01:49:27;;;;;;;6.37;5.47;;;;;;;2.02;88.13;94220.72;5029863;28;20203;-77
2023/01/27 01:51:59;;;;;;;4.87;4.47;;;;;;;2.02;88.59;94209.88;5032440;28;20199;-76
2023/01/27 01:54:29;;;;;;;5.27;4.77;;;;;;;2.15;87.33;94208.88;5032037;28;21586;-79
2023/01/27 01:57:00;;;;;;;4.30;4.00;;;;;;;2.16;86.75;94204.69;5032472;28;20324;-72
2023/01/27 01:59:32;;;;;;;4.63;4.23;;;;;;;2.19;87.23;94199.63;5032712;28;20207;-75
2023/01/27 02:02:03;;;;;;;4.53;4.17;;;;;;;2.11;87.34;94168.84;5031312;28;20258;-76
2023/01/27 02:04:34;;;;;;;3.97;3.70;;;;;;;2.21;86.99;94190.41;5031354;28;20318;-74
2023/01/27 02:07:08;;;;;;;4.97;4.57;;;;;;;2.18;87.11;94178.75;5030821;28;20272;-78
2023/01/27 02:09:35;;;;;;;4.07;3.77;;;;;;;2.16;87.77;94167.09;5032204;28;20211;-79
2023/01/27 02:12:02;;;;;;;4.20;3.90;;;;;;;2.19;87.00;94160.34;5031362;28;20203;-75
2023/01/27 02:14:28;;;;;;;4.27;3.87;;;;;;;2.20;86.65;94161.19;5031068;28;20253;-77
2023/01/27 02:16:56;;;;;;;4.47;4.17;;;;;;;2.13;86.85;94150.41;5030499;28;20203;-83
2023/01/27 02:19:27;;;;;;;4.87;4.00;;;;;;;2.22;86.54;94154.47;5032513;28;20199;-83
2023/01/27 02:21:56;;;;;;;4.67;4.27;;;;;;;2.18;87.11;94152.84;5032835;28;20218;-76
2023/01/27 02:24:31;;;;;;;4.47;4.03;;;;;;;2.17;87.38;94141.19;5030585;28;21604;-78
2023/01/27 02:26:59;;;;;;;4.27;3.87;;;;;;;2.19;87.03;94131.97;5032381;28;20628;-78
2023/01/27 02:29:27;;;;;;;4.83;4.20;;;;;;;2.21;87.16;94132.75;5032019;28;20328;-77
2023/01/27 02:31:54;;;;;;;4.53;4.17;;;;;;;2.20;86.28;94131.09;5031450;28;20242;-77
2023/01/27 02:34:25;;;;;;;3.90;3.60;;;;;;;2.17;86.88;94131.97;5031460;28;20214;-82
2023/01/27 02:36:55;;;;;;;4.07;3.77;;;;;;;2.10;87.04;94129.59;5030535;28;20747;-75
2023/01/27 02:39:31;;;;;;;4.10;3.80;;;;;;;2.11;87.21;94142.09;5031332;28;20231;-75
2023/01/27 02:42:00;;;;;;;5.53;3.77;;;;;;;2.01;87.63;94136.38;5032419;28;20292;-79
2023/01/27 02:44:27;;;;;;;4.70;4.27;;;;;;;2.07;87.81;94127.13;5031863;28;20231;-75
2023/01/27 02:46:54;;;;;;;3.80;3.53;;;;;;;2.09;87.59;94128.75;5032481;28;20872;-75
2023/01/27 02:49:20;;;;;;;5.17;4.00;;;;;;;2.10;86.84;94137.09;5032782;28;20218;-76
2023/01/27 02:51:47;;;;;;;4.80;4.40;;;;;;;2.05;87.66;94138.00;5031134;28;20213;-81
2023/01/27 02:54:14;;;;;;;4.87;4.47;;;;;;;2.16;87.70;94150.38;5030954;28;20269;-79
2023/01/27 02:56:40;;;;;;;4.77;4.37;;;;;;;2.15;87.59;94147.88;5032044;28;20211;-74
2023/01/27 02:59:08;;;;;;;6.00;4.70;;;;;;;2.18;87.49;94152.84;5032446;28;20207;-79
2023/01/27 03:01:35;;;;;;;4.87;4.37;;;;;;;2.23;87.25;94148.56;5032190;28;20969;-76
2023/01/27 03:04:02;;;;;;;4.97;4.47;;;;;;;2.23;86.46;94141.06;5031799;28;21532;-76
2023/01/27 03:06:29;;;;;;;4.53;4.03;;;;;;;2.18;86.59;94137.81;5031815;28;20291;-76
2023/01/27 03:08:55;;;;;;;4.10;3.80;;;;;;;2.23;86.49;94141.06;5029947;28;20215;-73
2023/01/27 03:14:03;;;;;;;4.93;4.53;;;;;;;2.29;86.16;94136.78;5031821;28;20194;-79
2023/01/27 03:19:15;;;;;;;5.20;4.83;;;;;;;2.32;87.11;94120.84;5032024;28;20775;-85
2023/01/27 03:21:44;;;;;;;4.87;4.30;;;;;;;2.35;86.80;94120.81;5032261;28;20211;-84
2023/01/27 03:24:10;;;;;;;5.37;4.87;;;;;;;2.24;86.93;94120.16;5032002;28;20222;-79
2023/01/27 03:26:38;;;;;;;5.67;4.10;;;;;;;2.18;87.89;94112.75;5032763;28;20271;-80
2023/01/27 03:31:50;;;;;;;3.77;3.47;;;;;;;2.10;87.68;94109.53;5029741;28;20688;-75
2023/01/27 03:34:17;;;;;;;4.30;3.90;;;;;;;2.04;88.21;94096.25;5029403;28;20203;-75
2023/01/27 03:47:43;;;;;;;4.80;4.07;;;;;;;2.27;87.51;94073.31;5035480;28;20632;-80
2023/01/27 03:50:12;;;;;;;3.40;3.13;;;;;;;2.28;86.62;94069.13;5036065;28;20199;-77
2023/01/27 03:52:39;;;;;;;3.87;3.57;;;;;;;2.28;86.21;94084.16;5034886;28;20732;-79
2023/01/27 03:55:08;;;;;;;4.30;3.93;;;;;;;2.26;87.19;94075.84;5035243;28;20299;-80
2023/01/27 03:57:36;;;;;;;4.67;4.20;;;;;;;2.15;86.59;94062.69;5032588;28;20207;-79
2023/01/27 04:00:04;;;;;;;4.67;4.27;;;;;;;2.25;87.01;94076.69;5033558;28;20873;-81
2023/01/27 04:08:04;;;;;;;5.30;3.97;;;;;;;2.37;87.36;94089.03;5035474;28;20214;-73
2023/01/27 04:10:31;;;;;;;4.37;3.97;;;;;;;2.25;87.45;94106.75;5033339;28;21662;-76
2023/01/27 04:12:57;;;;;;;7.33;5.20;;;;;;;2.24;87.04;94100.91;5035676;28;20312;-75
2023/01/27 04:15:23;;;;;;;6.43;5.17;;;;;;;2.34;86.45;94125.00;5034775;28;20643;-79
2023/01/27 04:17:50;;;;;;;5.83;4.93;;;;;;;2.52;85.54;94145.56;5034584;28;20207;-74
2023/01/27 04:20:19;;;;;;;9.43;6.03;;;;;;;2.48;83.80;94147.31;5033258;28;20281;-74
2023/01/27 04:22:45;;;;;;;5.57;5.07;;;;;;;2.15;85.65;94141.19;5034559;28;20201;-74
2023/01/27 04:25:12;;;;;;;5.80;4.40;;;;;;;1.91;87.07;94144.91;5030956;28;20279;-75
2023/01/27 04:27:39;;;;;;;4.83;4.43;;;;;;;2.03;87.43;94139.69;5034691;28;20214;-75
2023/01/27 04:30:07;;;;;;;5.30;4.90;;;;;;;2.11;87.29;94151.28;5034146;28;20214;-82
2023/01/27 04:32:34;;;;;;;5.80;5.03;;;;;;;2.13;87.11;94152.09;5034532;28;20230;-74
2023/01/27 04:35:00;;;;;;;5.30;3.97;;;;;;;2.13;87.83;94169.63;5033147;28;20568;-74
2023/01/27 04:37:28;;;;;;;5.00;4.60;;;;;;;2.24;87.28;94163.59;5034528;28;20260;-75
2023/01/27 04:39:55;;;;;;;5.67;5.27;;;;;;;2.23;87.38;94161.09;5034949;28;20254;-75
2023/01/27 04:42:22;;;;;;;7.47;4.87;;;;;;;2.31;87.09;94161.81;5035134;28;20693;-76
2023/01/27 04:44:48;;;;;;;4.43;4.10;;;;;;;2.31;87.72;94161.81;5033602;28;20230;-77
2023/01/27 04:47:15;;;;;;;6.50;4.60;;;;;;;2.31;87.78;94179.38;5032776;28;20206;-77
2023/01/27 04:49:42;;;;;;;6.87;5.93;;;;;;;2.32;86.92;94173.50;5034684;28;20207;-79
2023/01/27 04:52:09;;;;;;;19.00;12.33;;;;;;;2.37;87.44;94159.22;5033585;28;20668;-80
2023/01/27 04:54:37;;;;;;;8.10;7.17;;;;;;;2.43;86.74;94134.03;5032784;28;20245;-78
2023/01/27 04:57:04;;;;;;;11.27;8.33;;;;;;;2.57;86.50;94177.25;5032379;28;20203;-73
2023/01/27 04:59:31;;;;;;;22.13;13.13;;;;;;;2.53;86.67;94189.88;5033474;28;20214;-75
2023/01/27 05:01:58;;;;;;;17.23;12.30;;;;;;;2.54;86.78;94187.34;5033081;28;20199;-74
2023/01/27 05:04:25;;;;;;;17.10;10.67;;;;;;;2.56;86.38;94172.25;5035069;28;20223;-75
2023/01/27 05:06:52;;;;;;;17.93;11.47;;;;;;;2.55;86.63;94171.44;5033396;28;20312;-74
2023/01/27 05:09:19;;;;;;;15.73;11.43;;;;;;;2.50;87.19;94169.84;5032529;28;20776;-74
2023/01/27 05:11:47;;;;;;;17.67;9.90;;;;;;;2.55;86.58;94175.63;5034246;28;20276;-71
2023/01/27 05:14:14;;;;;;;11.67;9.53;;;;;;;2.45;86.84;94172.47;5031926;28;20622;-73
2023/01/27 05:16:40;;;;;;;15.90;9.80;;;;;;;2.26;87.45;94151.84;5032032;28;20322;-77
2023/01/27 05:19:08;;;;;;;23.80;15.37;;;;;;;2.44;87.96;94160.78;5034399;28;20336;-76
2023/01/27 05:21:35;;;;;;;42.77;17.67;;;;;;;2.46;87.03;94160.75;5032499;28;20712;-82
2023/01/27 05:24:02;;;;;;;24.93;15.33;;;;;;;2.42;87.01;94171.69;5032346;28;20272;-80
2023/01/27 05:26:28;;;;;;;19.13;12.17;;;;;;;2.38;87.57;94165.88;5030569;28;20211;-79
2023/01/27 05:28:58;;;;;;;18.97;11.27;;;;;;;2.46;87.38;94163.25;5031499;28;20199;-74
2023/01/27 05:31:27;;;;;;;17.50;11.30;;;;;;;2.38;87.33;94155.84;5029669;28;20246;-77
2023/01/27 05:33:55;;;;;;;15.17;10.70;;;;;;;2.32;87.56;94146.75;5030964;28;20290;-81
2023/01/27 05:36:23;;;;;;;16.03;11.00;;;;;;;2.40;86.88;94144.13;5030744;28;20644;-79
2023/01/27 05:38:50;;;;;;;13.10;10.90;;;;;;;2.36;86.77;94147.53;5032972;28;20234;-76
2023/01/27 05:41:19;;;;;;;14.00;10.10;;;;;;;2.33;87.18;94138.38;5033851;28;20217;-79
2023/01/27 05:43:50;;;;;;;17.80;10.97;;;;;;;2.31;87.32;94140.09;5034000;28;20203;-75
2023/01/27 05:46:20;;;;;;;12.50;9.47;;;;;;;2.33;87.94;94132.53;5031048;28;20223;-76
2023/01/27 05:48:49;;;;;;;21.63;13.93;;;;;;;2.43;87.21;94139.06;5029787;28;20652;-76
2023/01/27 05:51:18;;;;;;;32.67;17.90;;;;;;;2.34;88.05;94141.72;5032317;28;20272;-76
2023/01/27 05:53:45;;;;;;;14.20;9.67;;;;;;;2.40;88.38;94144.13;5031841;28;20229;-76
2023/01/27 05:56:14;;;;;;;9.17;6.63;;;;;;;2.48;87.39;94137.28;5033144;28;20199;-79
2023/01/27 05:58:41;;;;;;;6.40;5.80;;;;;;;2.41;86.88;94142.44;5030043;28;20757;-81
2023/01/27 06:01:09;;;;;;;7.17;5.10;;;;;;;2.37;87.29;94149.19;5031644;28;20611;-76
2023/01/27 06:03:38;;;;;;;5.63;4.67;;;;;;;2.20;86.53;94146.16;5030891;28;20210;-78
2023/01/27 06:06:06;;;;;;;6.93;4.43;;;;;;;2.23;87.07;94161.09;5031279;28;20676;-75
2023/01/27 06:08:34;;;;;;;5.50;4.97;;;;;;;2.26;86.50;94166.06;5032186;28;20693;-82
2023/01/27 06:11:00;;;;;;;5.63;5.13;;;;;;;2.36;86.00;94153.38;5031904;28;20203;-80
2023/01/27 06:13:27;;;;;;;5.30;4.90;;;;;;;2.35;86.26;94148.38;5031744;28;20207;-81
2023/01/27 06:15:54;;;;;;;5.47;4.97;;;;;;;2.35;85.70;94153.41;5029060;28;20199;-78
2023/01/27 06:18:21;;;;;;;4.80;4.37;;;;;;;2.48;85.13;94152.31;5028480;28;20290;-79
2023/01/27 06:20:49;;;;;;;7.73;4.73;;;;;;;2.46;85.08;94158.25;5029859;28;20199;-80
2023/01/27 06:23:17;;;;;;;4.47;4.07;;;;;;;2.44;84.48;94140.72;5030962;28;20202;-78
2023/01/27 06:25:46;;;;;;;4.97;4.20;;;;;;;2.57;85.47;94156.38;5031360;28;20230;-81
2023/01/27 06:28:13;;;;;;;5.00;3.83;;;;;;;2.63;84.79;94168.81;5031294;28;20207;-76
2023/01/27 06:30:41;;;;;;;4.93;3.90;;;;;;;2.59;83.89;94160.50;5029744;28;20203;-80
2023/01/27 06:33:09;;;;;;;9.90;5.13;;;;;;;2.61;84.24;94158.78;5031647;28;20257;-73
2023/01/27 06:35:37;;;;;;;4.67;4.20;;;;;;;2.70;85.03;94158.66;5031231;28;20211;-76
2023/01/27 06:38:08;;;;;;;5.67;4.67;;;;;;;2.77;84.26;94156.00;5031358;28;20207;-78
2023/01/27 06:40:35;;;;;;;4.73;4.43;;;;;;;2.84;84.05;94157.56;5028351;28;20225;-71
2023/01/27 06:43:02;;;;;;;5.33;4.83;;;;;;;2.95;83.39;94158.19;5030666;28;20215;-75
2023/01/27 06:45:28;;;;;;;4.60;4.20;;;;;;;3.03;82.96;94169.72;5028980;28;20234;-75
2023/01/27 06:47:56;;;;;;;4.90;4.50;;;;;;;3.12;82.24;94176.25;5031032;28;20213;-74
2023/01/27 06:50:24;;;;;;;4.23;3.83;;;;;;;3.09;82.05;94161.25;5032154;28;20203;-74
2023/01/27 06:52:51;;;;;;;4.40;4.00;;;;;;;3.11;82.11;94161.22;5031275;28;20213;-74
2023/01/27 06:55:19;;;;;;;4.80;4.40;;;;;;;3.15;82.17;94175.38;5031154;28;20206;-75
2023/01/27 06:57:47;;;;;;;5.13;4.63;;;;;;;3.14;82.44;94174.56;5031564;28;20227;-73
2023/01/27 07:00:15;;;;;;;6.17;5.57;;;;;;;3.25;82.49;94172.63;5029894;28;20746;-73
2023/01/27 07:02:42;;;;;;;5.87;5.27;;;;;;;3.27;82.18;94175.94;5031800;28;20282;-76
2023/01/27 07:05:09;;;;;;;5.43;4.60;;;;;;;3.30;82.29;94175.88;5030146;28;20687;-74
2023/01/27 07:07:36;;;;;;;11.23;4.90;;;;;;;3.33;82.37;94182.53;5030659;28;20210;-75
2023/01/27 07:10:03;;;;;;;5.47;4.97;;;;;;;3.38;82.33;94184.09;5030427;28;20747;-76
2023/01/27 07:12:33;;;;;;;7.90;5.43;;;;;;;3.50;82.25;94174.66;5031456;28;20758;-74
2023/01/27 07:15:00;;;;;;;5.20;4.80;;;;;;;3.50;81.96;94188.03;5029956;28;20302;-75
2023/01/27 07:17:26;;;;;;;5.87;5.30;;;;;;;3.53;81.82;94187.16;5031025;28;21037;-75
2023/01/27 07:19:53;;;;;;;6.27;5.77;;;;;;;3.63;82.36;94179.41;5030957;28;20349;-74
2023/01/27 07:22:20;;;;;;;6.77;5.57;;;;;;;3.74;81.49;94181.66;5031698;28;20272;-74
2023/01/27 07:24:46;;;;;;;5.33;4.83;;;;;;;3.88;80.79;94179.72;5032267;28;20592;-75
2023/01/27 07:27:13;;;;;;;6.33;5.53;;;;;;;3.99;80.64;94177.75;5030858;28;20336;-74
2023/01/27 07:29:41;;;;;;;6.20;5.60;;;;;;;4.12;80.54;94178.31;5029801;28;20207;-74
2023/01/27 07:32:08;;;;;;;7.87;7.07;;;;;;;4.21;78.38;94178.09;5031751;28;20238;-76
2023/01/27 07:34:35;;;;;;;9.67;7.80;;;;;;;4.18;77.91;94183.22;5032022;28;20202;-74
2023/01/27 07:37:04;;;;;;;14.50;9.33;;;;;;;4.15;78.10;94188.31;5031545;28;20521;-75
2023/01/27 07:39:32;;;;;;;8.27;7.30;;;;;;;4.19;78.79;94179.03;5030705;28;20335;-74
2023/01/27 07:42:00;;;;;;;6.67;6.07;;;;;;;4.26;77.83;94178.81;5031941;28;20207;-74
2023/01/27 07:44:27;;;;;;;9.10;6.77;;;;;;;4.26;77.68;94190.56;5031154;28;20247;-75
2023/01/27 07:46:55;;;;;;;6.00;5.40;;;;;;;4.31;77.75;94183.75;5031364;28;20230;-75
2023/01/27 07:49:22;;;;;;;6.10;5.57;;;;;;;4.40;77.29;94189.41;5031038;28;21636;-74
2023/01/27 07:51:48;;;;;;;5.10;4.60;;;;;;;4.43;75.99;94188.50;5029881;28;21188;-76
2023/01/27 07:54:15;;;;;;;7.22;5.30;;;;;;;4.47;76.10;94184.19;5031602;28;20229;-74
2023/01/27 07:56:42;;;;;;;7.80;6.18;;;;;;;4.45;75.44;94179.22;5030854;28;20199;-75
2023/01/27 07:59:10;;;;;;;9.40;6.27;;;;;;;4.57;75.42;94183.94;5030333;28;20211;-75
2023/01/27 08:01:39;;;;;;;8.10;5.20;;;;;;;4.52;76.09;94190.78;5030142;28;20214;-74
2023/01/27 08:04:07;;;;;;;10.87;6.10;;;;;;;4.51;76.33;94194.16;5030867;28;20286;-75
2023/01/27 08:06:33;;;;;;;15.07;6.63;;;;;;;4.52;75.52;94188.25;5030198;28;20229;-76
2023/01/27 08:09:00;;;;;;;17.30;7.10;;;;;;;4.55;75.46;94188.19;5030402;28;20292;-74
2023/01/27 08:11:27;;;;;;;14.07;7.93;;;;;;;4.66;73.87;94185.41;5031424;28;20214;-75
2023/01/27 08:13:53;;;;;;;17.43;7.53;;;;;;;4.65;74.28;94186.28;5030891;28;20211;-75
2023/01/27 08:16:20;;;;;;;9.97;5.73;;;;;;;4.68;73.81;94184.53;5030001;28;20203;-74
2023/01/27 08:18:47;;;;;;;5.85;4.25;;;;;;;4.77;73.92;94185.97;5031049;28;20215;-74
2023/01/27 08:21:15;;;;;;;10.20;5.80;;;;;;;4.86;73.45;94184.91;5031277;28;20198;-76
2023/01/27 08:23:42;;;;;;;16.43;7.17;;;;;;;4.88;72.41;94185.69;5033093;28;20292;-73
2023/01/27 08:26:08;;;;;;;13.23;5.77;;;;;;;4.90;72.17;94178.94;5033801;28;20292;-76
2023/01/27 08:28:37;;;;;;;12.23;6.93;;;;;;;4.75;72.58;94188.50;5033866;28;20336;-74
2023/01/27 08:31:05;;;;;;;5.87;4.43;;;;;;;4.50;72.82;94195.00;5033394;28;20479;-74
2023/01/27 08:33:32;;;;;;;5.90;4.57;;;;;;;4.36;73.13;94197.88;5034048;28;20257;-77
2023/01/27 08:36:02;;;;;;;5.77;4.87;;;;;;;4.27;73.78;94202.28;5034690;28;20260;-76
2023/01/27 08:38:31;;;;;;;4.30;3.90;;;;;;;4.20;74.46;94190.72;5034261;28;20218;-77
2023/01/27 08:40:57;;;;;;;5.93;4.57;;;;;;;4.01;75.16;94205.38;5034109;28;20293;-75
2023/01/27 08:43:24;;;;;;;5.73;4.40;;;;;;;3.91;75.71;94202.25;5035145;28;20261;-75
2023/01/27 08:45:52;;;;;;;4.47;4.07;;;;;;;3.90;75.20;94203.13;5033400;28;20280;-74
2023/01/27 08:48:19;;;;;;;3.63;3.43;;;;;;;3.88;74.91;94206.53;5034686;28;20207;-75
2023/01/27 08:50:45;;;;;;;4.67;3.43;;;;;;;3.88;74.84;94209.88;5033365;28;20221;-76
2023/01/27 08:53:12;;;;;;;3.60;3.07;;;;;;;3.75;75.78;94199.22;5033632;28;20716;-74
2023/01/27 08:55:40;;;;;;;3.53;2.85;;;;;;;3.66;75.72;94206.16;5032968;28;20961;-74
2023/01/27 08:58:07;;;;;;;3.17;2.90;;;;;;;3.55;76.50;94200.50;5034362;28;20272;-75
2023/01/27 09:00:35;;;;;;;4.93;3.53;;;;;;;3.58;76.16;94191.22;5033341;28;20214;-76
2023/01/27 09:03:02;;;;;;;3.13;2.83;;;;;;;3.71;75.92;94196.84;5032949;28;20997;-75
2023/01/27 09:05:29;;;;;;;3.40;3.20;;;;;;;3.60;75.97;94207.09;5032629;28;20723;-74
2023/01/27 09:07:55;;;;;;;8.70;3.60;;;;;;;3.63;76.03;94203.69;5034140;28;20203;-76
2023/01/27 09:10:22;;;;;;;3.80;3.43;;;;;;;3.68;76.07;94201.94;5033020;28;20206;-74
2023/01/27 09:12:50;;;;;;;4.50;3.73;;;;;;;3.62;76.53;94197.03;5033329;28;20199;-74
2023/01/27 09:15:17;;;;;;;4.77;4.37;;;;;;;3.69;76.02;94188.50;5033122;28;20210;-74
2023/01/27 09:17:44;;;;;;;11.63;4.93;;;;;;;3.76;75.89;94190.00;5033521;28;20210;-74
2023/01/27 09:20:11;;;;;;;9.23;5.23;;;;;;;3.69;75.49;94191.03;5033692;28;20264;-74
2023/01/27 09:22:40;;;;;;;10.67;5.97;;;;;;;3.70;76.69;94196.00;5033612;28;20681;-75
2023/01/27 09:25:08;;;;;;;5.73;3.67;;;;;;;3.84;76.24;94195.72;5033021;28;20230;-75
2023/01/27 09:27:35;;;;;;;3.83;3.30;;;;;;;3.97;75.76;94193.75;5032413;28;20579;-76
2023/01/27 09:30:03;;;;;;;4.85;4.38;;;;;;;3.95;76.25;94186.25;5033108;28;20211;-75
2023/01/27 09:32:30;;;;;;;3.73;3.43;;;;;;;3.91;75.55;94186.34;5034052;28;20292;-75
2023/01/27 09:34:56;;;;;;;5.50;3.60;;;;;;;4.01;75.50;94180.25;5032497;28;20256;-76
2023/01/27 09:37:24;;;;;;;4.20;3.50;;;;;;;4.07;74.68;94180.13;5032498;28;20210;-74
2023/01/27 09:39:55;;;;;;;3.63;3.33;;;;;;;4.12;74.72;94169.97;5032580;28;20709;-75
2023/01/27 09:42:43;;;;;;;3.37;3.07;;;;;;;4.08;74.81;94167.50;5033126;28;20676;-74
2023/01/27 09:45:32;;;;;;;3.30;3.00;;;;;;;3.98;75.10;94166.06;5030041;28;20215;-75
2023/01/27 09:48:44;;;;;;;3.40;3.20;;;;;;;3.95;75.03;94161.13;5032451;28;20712;-79
2023/01/27 09:51:21;;;;;;;3.75;3.47;;;;;;;3.90;74.80;94160.41;5033377;28;20236;-76
2023/01/27 09:54:19;;;;;;;2.67;2.50;;;;;;;3.90;74.96;94152.03;5032367;28;20210;-73
2023/01/27 09:56:59;;;;;;;3.33;3.00;;;;;;;3.87;74.82;94152.91;5032914;28;20233;-74
2023/01/27 09:59:48;;;;;;;3.50;3.30;;;;;;;3.76;74.95;94154.84;5033518;28;20268;-77
2023/01/27 10:02:28;;;;;;;3.83;3.30;;;;;;;3.69;76.01;94150.81;5031701;28;20775;-74
2023/01/27 10:05:22;;;;;;;2.90;2.80;;;;;;;3.74;76.21;94141.47;5031652;28;20210;-75
2023/01/27 10:08:07;;;;;;;3.53;3.27;;;;;;;3.71;76.45;94139.84;5033365;28;20219;-75
2023/01/27 10:10:49;;;;;;;3.90;3.60;;;;;;;3.83;76.30;94138.75;5032329;28;20203;-74
2023/01/27 10:13:23;;;;;;;2.93;2.73;;;;;;;3.87;75.73;94132.81;5032431;28;20203;-75
2023/01/27 10:16:03;;;;;;;3.93;3.57;;;;;;;3.85;75.85;94129.50;5032087;28;20248;-75
2023/01/27 10:18:46;;;;;;;4.70;4.40;;;;;;;3.89;76.50;94127.75;5032223;28;20203;-76
2023/01/27 10:21:19;;;;;;;8.23;5.63;;;;;;;3.82;75.92;94127.06;5033569;28;20218;-77
2023/01/27 10:24:00;;;;;;;5.97;4.37;;;;;;;3.83;75.48;94138.75;5031966;28;20269;-75
2023/01/27 10:26:35;;;;;;;6.83;4.67;;;;;;;3.74;75.64;94132.25;5031300;28;20231;-76
2023/01/27 10:29:09;;;;;;;4.43;4.10;;;;;;;3.70;75.97;94129.88;5031929;28;20220;-76
2023/01/27 10:31:37;;;;;;;5.13;4.07;;;;;;;3.63;76.39;94143.41;5031575;28;21323;-74
2023/01/27 10:34:14;;;;;;;4.13;3.80;;;;;;;3.67;76.70;94134.94;5032452;28;20206;-74
2023/01/27 10:36:49;;;;;;;6.25;4.10;;;;;;;3.66;76.05;94130.78;5031123;28;20207;-76
2023/01/27 10:39:25;;;;;;;4.07;3.77;;;;;;;3.62;76.44;94131.72;5032856;28;20218;-78
2023/01/27 10:41:59;;;;;;;3.47;3.27;;;;;;;3.58;76.42;94130.13;5031497;28;20202;-76
2023/01/27 10:44:57;;;;;;;3.50;3.20;;;;;;;3.51;76.52;94134.44;5031476;28;21113;-75
2023/01/27 10:47:39;;;;;;;3.40;3.20;;;;;;;3.51;76.10;94136.13;5029896;28;20223;-76
2023/01/27 10:50:13;;;;;;;5.07;4.57;;;;;;;3.45;76.68;94129.56;5031534;28;20596;-76
2023/01/27 10:52:45;;;;;;;3.80;3.57;;;;;;;3.31;76.91;94122.31;5031982;28;20268;-74
2023/01/27 10:55:18;;;;;;;4.47;4.17;;;;;;;3.46;76.97;94120.34;5031859;28;20675;-76
2023/01/27 10:57:49;;;;;;;6.83;5.43;;;;;;;3.50;77.13;94126.94;5031147;28;20230;-75
2023/01/27 11:00:21;;;;;;;8.40;4.07;;;;;;;3.57;77.11;94126.78;5030236;28;20260;-74
2023/01/27 11:02:59;;;;;;;4.97;4.57;;;;;;;3.61;76.34;94132.56;5031132;28;20260;-77
2023/01/27 11:05:33;;;;;;;3.97;3.67;;;;;;;3.65;76.34;94126.63;5031356;28;20218;-77
2023/01/27 11:08:05;;;;;;;4.03;3.83;;;;;;;3.54;75.39;94110.94;5031526;28;20237;-77
2023/01/27 11:10:37;;;;;;;4.77;4.30;;;;;;;3.65;76.14;94122.41;5031774;28;20746;-75
2023/01/27 11:13:05;;;;;;;4.00;3.70;;;;;;;3.68;76.01;94124.88;5031717;28;20668;-74
2023/01/27 11:15:33;;;;;;;7.33;4.63;;;;;;;3.68;76.14;94126.56;5030860;28;20210;-75
2023/01/27 11:18:04;;;;;;;4.70;4.30;;;;;;;3.70;76.00;94124.84;5030810;28;20203;-75
2023/01/27 11:20:38;;;;;;;4.23;3.93;;;;;;;3.72;76.15;94120.56;5032106;28;20296;-76
2023/01/27 11:23:14;;;;;;;4.57;4.27;;;;;;;3.75;76.69;94118.00;5031319;28;20752;-73
2023/01/27 11:25:51;;;;;;;6.67;4.60;;;;;;;3.80;76.32;94111.19;5031017;28;20221;-74
2023/01/27 11:28:29;;;;;;;4.13;3.83;;;;;;;3.82;75.44;94101.94;5031255;28;20309;-75
2023/01/27 11:31:07;;;;;;;4.00;3.70;;;;;;;3.70;75.59;94104.75;5031776;28;20203;-75
2023/01/27 11:33:46;;;;;;;4.87;4.07;;;;;;;3.73;75.41;94109.66;5030632;28;20199;-73
2023/01/27 11:36:15;;;;;;;5.70;4.23;;;;;;;3.70;75.37;94098.03;5031367;28;20203;-75
2023/01/27 11:38:41;;;;;;;4.37;4.07;;;;;;;3.67;75.82;94099.78;5030060;28;20211;-75
2023/01/27 11:41:08;;;;;;;5.03;4.60;;;;;;;3.67;75.87;94095.59;5031601;28;20207;-76
2023/01/27 11:43:37;;;;;;;4.07;3.72;;;;;;;3.60;76.36;94099.09;5031052;28;20742;-75
2023/01/27 11:46:07;;;;;;;4.23;3.83;;;;;;;3.59;76.53;94101.63;5031142;28;20226;-75
2023/01/27 11:48:39;;;;;;;5.65;5.25;;;;;;;3.63;76.30;94099.00;5030576;28;20767;-74
2023/01/27 11:51:12;;;;;;;5.20;4.47;;;;;;;3.69;75.49;94093.03;5030401;28;20226;-74
2023/01/27 11:53:41;;;;;;;6.10;4.73;;;;;;;3.66;75.77;94098.94;5031324;28;20857;-74
2023/01/27 11:56:15;;;;;;;5.40;4.93;;;;;;;3.68;76.24;94086.34;5030990;28;20252;-74
2023/01/27 11:58:47;;;;;;;5.10;4.70;;;;;;;3.61;76.60;94099.91;5033703;28;20557;-76
2023/01/27 12:01:18;;;;;;;5.10;4.70;;;;;;;3.61;76.85;94089.84;5034907;28;20195;-74
2023/01/27 12:03:52;;;;;;;6.20;5.00;;;;;;;3.68;76.37;94091.38;5034710;28;20289;-75
2023/01/27 12:06:29;;;;;;;5.03;4.63;;;;;;;3.69;76.22;94088.00;5033839;28;20221;-75
2023/01/27 12:08:57;;;;;;;3.80;3.60;;;;;;;3.65;76.19;94091.44;5034412;28;20244;-81
2023/01/27 12:11:25;;;;;;;4.03;3.73;;;;;;;3.58;76.40;94094.94;5033802;28;20214;-72
2023/01/27 12:13:55;;;;;;;4.30;3.87;;;;;;;3.58;77.27;94092.44;5033838;28;20217;-75
2023/01/27 12:16:25;;;;;;;4.13;3.73;;;;;;;3.46;77.14;94092.72;5033756;28;20272;-75
2023/01/27 12:18:58;;;;;;;3.33;3.13;;;;;;;3.52;77.26;94090.06;5034921;28;20245;-78
2023/01/27 12:21:38;;;;;;;7.10;3.47;;;;;;;3.45;77.59;94079.34;5033874;28;20997;-74
2023/01/27 12:24:21;;;;;;;4.17;3.87;;;;;;;3.56;76.75;94082.41;5032858;28;20207;-76